createdAt,value
2018-06-25T00:00:25.775Z,84.19
2018-06-25T00:01:25.763Z,83.89
2018-06-25T00:02:25.764Z,84.80
2018-06-25T00:03:25.766Z,83.98
2018-06-25T00:04:25.731Z,84.03
2018-06-25T00:05:25.723Z,84.50
2018-06-25T00:06:25.710Z,84.23
2018-06-25T00:07:25.717Z,84.50
2018-06-25T00:08:25.686Z,84.53
2018-06-25T00:09:25.676Z,84.64
2018-06-25T00:10:25.665Z,84.74
2018-06-25T00:11:25.656Z,84.53
2018-06-25T00:12:25.656Z,84.12
2018-06-25T00:13:25.630Z,84.64
2018-06-25T00:14:25.649Z,84.50
2018-06-25T00:15:25.610Z,84.50
2018-06-25T00:16:25.599Z,84.50
2018-06-25T00:17:25.623Z,84.43
2018-06-25T00:18:25.589Z,84.23
2018-06-25T00:19:25.569Z,84.53
2018-06-25T00:20:25.556Z,84.50
2018-06-25T00:21:25.542Z,84.59
2018-06-25T00:22:25.567Z,84.70
2018-06-25T00:23:25.521Z,84.80
2018-06-25T00:24:25.518Z,84.84
2018-06-25T00:25:25.522Z,84.94
2018-06-25T00:26:25.488Z,85.66
2018-06-25T00:27:25.514Z,85.55
2018-06-25T00:28:25.465Z,85.35
2018-06-25T00:29:25.456Z,86.37
2018-06-25T00:30:25.445Z,85.66
2018-06-25T00:31:25.438Z,86.47
2018-06-25T00:32:25.432Z,86.88
2018-06-25T00:33:25.422Z,85.96
2018-06-25T00:34:25.400Z,86.27
2018-06-25T00:35:25.389Z,86.16
2018-06-25T00:36:25.381Z,85.75
2018-06-25T00:37:25.395Z,86.16
2018-06-25T00:38:25.355Z,86.51
2018-06-25T00:39:25.346Z,86.41
2018-06-25T00:40:25.334Z,86.88
2018-06-25T00:41:25.321Z,86.98
2018-06-25T00:42:25.324Z,86.98
2018-06-25T00:43:25.300Z,86.77
2018-06-25T00:44:25.288Z,86.37
2018-06-25T00:45:25.277Z,86.88
2018-06-25T00:46:25.267Z,86.47
2018-06-25T00:47:25.267Z,86.37
2018-06-25T00:48:25.244Z,86.68
2018-06-25T00:49:25.235Z,86.47
2018-06-25T00:50:25.222Z,86.37
2018-06-25T00:51:25.212Z,86.37
2018-06-25T00:52:25.213Z,86.57
2018-06-25T00:53:25.189Z,86.77
2018-06-25T00:54:25.197Z,86.77
2018-06-25T00:55:25.172Z,86.16
2018-06-25T00:56:25.156Z,86.37
2018-06-25T00:57:25.179Z,86.47
2018-06-25T00:58:25.134Z,86.47
2018-06-25T00:59:25.127Z,86.41
2018-06-25T01:00:25.111Z,87.18
2018-06-25T01:01:25.100Z,87.08
2018-06-25T01:02:25.107Z,86.88
2018-06-25T01:03:25.081Z,87.08
2018-06-25T01:04:25.067Z,87.29
2018-06-25T01:05:25.055Z,86.98
2018-06-25T01:06:25.047Z,87.29
2018-06-25T01:07:25.046Z,86.88
2018-06-25T01:08:25.025Z,86.88
2018-06-25T01:09:25.013Z,87.29
2018-06-25T01:10:25.000Z,87.18
2018-06-25T01:11:24.990Z,87.08
2018-06-25T01:12:24.989Z,87.49
2018-06-25T01:13:24.969Z,87.29
2018-06-25T01:14:24.961Z,87.38
2018-06-25T01:15:24.946Z,87.49
2018-06-25T01:16:24.937Z,87.79
2018-06-25T01:17:24.934Z,87.69
2018-06-25T01:18:24.911Z,87.38
2018-06-25T01:19:24.901Z,87.29
2018-06-25T01:20:24.893Z,86.88
2018-06-25T01:21:24.879Z,87.08
2018-06-25T01:22:24.884Z,86.77
2018-06-25T01:23:24.856Z,86.37
2018-06-25T01:24:24.852Z,86.88
2018-06-25T01:25:24.835Z,87.18
2018-06-25T01:26:24.824Z,87.49
2018-06-25T01:27:24.816Z,87.79
2018-06-25T01:28:24.812Z,87.90
2018-06-25T01:29:24.792Z,88.10
2018-06-25T01:30:24.780Z,87.79
2018-06-25T01:31:24.792Z,87.59
2018-06-25T01:32:24.759Z,87.49
2018-06-25T01:33:24.782Z,87.59
2018-06-25T01:34:24.735Z,87.69
2018-06-25T01:35:24.726Z,87.59
2018-06-25T01:36:24.715Z,87.69
2018-06-25T01:37:24.701Z,88.10
2018-06-25T01:38:24.701Z,87.59
2018-06-25T01:39:24.685Z,87.49
2018-06-25T01:40:24.672Z,87.59
2018-06-25T01:41:24.659Z,87.49
2018-06-25T01:42:24.647Z,87.59
2018-06-25T01:43:24.647Z,87.59
2018-06-25T01:44:24.625Z,87.79
2018-06-25T01:45:24.618Z,87.59
2018-06-25T01:46:24.604Z,88.10
2018-06-25T01:47:24.592Z,87.90
2018-06-25T01:48:24.614Z,87.79
2018-06-25T01:49:24.570Z,88.31
2018-06-25T01:50:24.559Z,87.90
2018-06-25T01:51:24.552Z,88.31
2018-06-25T01:52:24.536Z,88.51
2018-06-25T01:53:24.536Z,88.51
2018-06-25T01:54:24.546Z,88.71
2018-06-25T01:55:24.503Z,88.40
2018-06-25T01:56:24.492Z,88.40
2018-06-25T01:57:24.491Z,88.40
2018-06-25T01:58:24.482Z,88.20
2018-06-25T01:59:24.458Z,88.40
2018-06-25T02:00:24.449Z,88.31
2018-06-25T02:01:24.440Z,87.69
2018-06-25T02:02:24.427Z,88.10
2018-06-25T02:03:24.430Z,88.31
2018-06-25T02:04:24.405Z,88.31
2018-06-25T02:05:24.394Z,88.31
2018-06-25T02:06:24.386Z,89.32
2018-06-25T02:07:24.371Z,89.01
2018-06-25T02:08:24.371Z,89.01
2018-06-25T02:09:24.352Z,89.12
2018-06-25T02:10:24.342Z,88.92
2018-06-25T02:11:24.326Z,88.71
2018-06-25T02:12:24.331Z,88.71
2018-06-25T02:13:24.317Z,88.40
2018-06-25T02:14:24.294Z,88.81
2018-06-25T02:15:24.284Z,88.92
2018-06-25T02:16:24.274Z,88.81
2018-06-25T02:17:24.260Z,88.71
2018-06-25T02:18:24.258Z,88.81
2018-06-25T02:19:24.238Z,89.01
2018-06-25T02:20:24.226Z,88.81
2018-06-25T02:21:24.220Z,89.01
2018-06-25T02:22:24.207Z,88.92
2018-06-25T02:23:24.207Z,88.81
2018-06-25T02:24:24.182Z,88.81
2018-06-25T02:25:24.172Z,88.81
2018-06-25T02:26:24.162Z,88.71
2018-06-25T02:27:24.150Z,88.61
2018-06-25T02:28:24.149Z,88.81
2018-06-25T02:29:24.131Z,88.71
2018-06-25T02:30:24.118Z,88.92
2018-06-25T02:31:24.109Z,88.92
2018-06-25T02:32:24.097Z,88.81
2018-06-25T02:33:24.094Z,88.71
2018-06-25T02:34:24.074Z,88.81
2018-06-25T02:35:24.074Z,88.71
2018-06-25T02:36:24.052Z,88.92
2018-06-25T02:37:24.068Z,89.32
2018-06-25T02:38:24.039Z,89.32
2018-06-25T02:39:24.017Z,89.53
2018-06-25T02:40:24.017Z,88.71
2018-06-25T02:41:23.995Z,88.61
2018-06-25T02:42:24.082Z,89.32
2018-06-25T02:43:23.985Z,89.22
2018-06-25T02:44:23.962Z,88.92
2018-06-25T02:45:23.951Z,88.92
2018-06-25T02:46:23.940Z,88.61
2018-06-25T02:47:23.936Z,89.12
2018-06-25T02:48:23.945Z,89.12
2018-06-25T02:49:23.911Z,89.32
2018-06-25T02:50:23.897Z,89.22
2018-06-25T02:51:23.884Z,89.63
2018-06-25T02:52:23.873Z,89.42
2018-06-25T02:53:23.891Z,89.12
2018-06-25T02:54:23.852Z,89.12
2018-06-25T02:55:23.844Z,89.53
2018-06-25T02:56:23.830Z,89.53
2018-06-25T02:57:23.817Z,89.42
2018-06-25T02:58:23.819Z,89.53
2018-06-25T02:59:23.800Z,89.42
2018-06-25T03:00:23.787Z,89.53
2018-06-25T03:01:23.780Z,89.63
2018-06-25T03:02:23.764Z,89.53
2018-06-25T03:03:23.763Z,89.26
2018-06-25T03:04:23.746Z,89.32
2018-06-25T03:05:23.730Z,89.12
2018-06-25T03:06:23.718Z,89.47
2018-06-25T03:07:23.708Z,89.53
2018-06-25T03:08:23.712Z,89.12
2018-06-25T03:09:23.685Z,89.12
2018-06-25T03:10:23.677Z,89.32
2018-06-25T03:11:23.705Z,89.12
2018-06-25T03:12:23.652Z,89.53
2018-06-25T03:13:23.655Z,88.51
2018-06-25T03:14:23.630Z,88.65
2018-06-25T03:15:23.619Z,87.63
2018-06-25T03:16:23.608Z,87.53
2018-06-25T03:17:23.597Z,89.00
2018-06-25T03:18:23.612Z,89.10
2018-06-25T03:19:23.574Z,89.40
2018-06-25T03:20:23.571Z,89.16
2018-06-25T03:21:23.553Z,89.61
2018-06-25T03:22:23.543Z,89.77
2018-06-25T03:23:23.546Z,89.67
2018-06-25T03:24:23.519Z,89.00
2018-06-25T03:25:23.508Z,87.88
2018-06-25T03:26:23.500Z,87.98
2018-06-25T03:27:23.490Z,87.63
2018-06-25T03:28:23.491Z,87.98
2018-06-25T03:29:23.466Z,87.57
2018-06-25T03:30:23.470Z,86.96
2018-06-25T03:31:23.444Z,87.23
2018-06-25T03:32:23.432Z,87.06
2018-06-25T03:33:23.420Z,87.57
2018-06-25T03:34:23.418Z,87.23
2018-06-25T03:35:23.405Z,87.77
2018-06-25T03:36:23.387Z,88.18
2018-06-25T03:37:23.376Z,87.63
2018-06-25T03:38:23.367Z,87.88
2018-06-25T03:39:23.365Z,87.23
2018-06-25T03:40:23.342Z,87.16
2018-06-25T03:41:23.332Z,87.16
2018-06-25T03:42:23.320Z,87.57
2018-06-25T03:43:23.460Z,87.77
2018-06-25T03:44:23.324Z,87.67
2018-06-25T03:45:23.288Z,87.26
2018-06-25T03:46:23.275Z,87.67
2018-06-25T03:47:23.265Z,87.77
2018-06-25T03:48:23.253Z,88.65
2018-06-25T03:49:23.254Z,88.45
2018-06-25T03:50:23.234Z,88.55
2018-06-25T03:51:23.220Z,89.00
2018-06-25T03:52:23.210Z,88.90
2018-06-25T03:53:23.197Z,88.79
2018-06-25T03:54:23.198Z,88.90
2018-06-25T03:55:23.176Z,89.10
2018-06-25T03:56:23.167Z,88.49
2018-06-25T03:57:23.166Z,87.88
2018-06-25T03:58:23.143Z,87.57
2018-06-25T03:59:23.162Z,87.88
2018-06-25T04:00:23.383Z,87.67
2018-06-25T04:01:23.110Z,87.94
2018-06-25T04:02:23.101Z,87.47
2018-06-25T04:03:23.090Z,88.28
2018-06-25T04:04:23.090Z,88.14
2018-06-25T04:05:23.067Z,89.06
2018-06-25T04:06:23.057Z,88.79
2018-06-25T04:07:23.044Z,88.90
2018-06-25T04:08:23.035Z,88.69
2018-06-25T04:09:23.037Z,88.39
2018-06-25T04:10:23.014Z,87.88
2018-06-25T04:11:23.001Z,88.45
2018-06-25T04:12:22.988Z,88.08
2018-06-25T04:13:22.980Z,88.08
2018-06-25T04:14:22.976Z,88.34
2018-06-25T04:15:22.957Z,89.10
2018-06-25T04:16:22.944Z,88.39
2018-06-25T04:17:22.933Z,88.34
2018-06-25T04:18:22.950Z,88.04
2018-06-25T04:19:22.921Z,88.18
2018-06-25T04:20:22.904Z,88.14
2018-06-25T04:21:22.888Z,87.37
2018-06-25T04:22:22.878Z,88.04
2018-06-25T04:23:22.868Z,88.04
2018-06-25T04:24:22.876Z,88.18
2018-06-25T04:25:22.846Z,87.84
2018-06-25T04:26:22.833Z,87.94
2018-06-25T04:27:22.820Z,88.55
2018-06-25T04:28:22.811Z,88.14
2018-06-25T04:29:22.810Z,87.63
2018-06-25T04:30:22.797Z,88.14
2018-06-25T04:31:22.781Z,87.84
2018-06-25T04:32:22.769Z,87.84
2018-06-25T04:33:22.756Z,87.43
2018-06-25T04:34:22.755Z,87.43
2018-06-25T04:35:22.733Z,88.04
2018-06-25T04:36:22.725Z,87.84
2018-06-25T04:37:22.711Z,87.63
2018-06-25T04:38:22.700Z,88.04
2018-06-25T04:39:22.700Z,87.63
2018-06-25T04:40:22.847Z,87.73
2018-06-25T04:41:22.667Z,87.53
2018-06-25T04:42:22.659Z,88.04
2018-06-25T04:43:22.663Z,88.04
2018-06-25T04:44:22.645Z,88.14
2018-06-25T04:45:22.623Z,88.14
2018-06-25T04:46:22.615Z,88.04
2018-06-25T04:47:22.600Z,88.45
2018-06-25T04:48:22.589Z,88.34
2018-06-25T04:49:22.591Z,88.65
2018-06-25T04:50:22.567Z,88.55
2018-06-25T04:51:22.555Z,87.63
2018-06-25T04:52:22.547Z,88.00
2018-06-25T04:53:22.533Z,88.20
2018-06-25T04:54:22.533Z,87.63
2018-06-25T04:55:22.515Z,88.10
2018-06-25T04:56:22.500Z,87.49
2018-06-25T04:57:22.490Z,87.79
2018-06-25T04:58:22.477Z,87.69
2018-06-25T04:59:22.480Z,87.29
2018-06-25T05:00:22.460Z,87.38
2018-06-25T05:01:22.454Z,87.14
2018-06-25T05:02:22.444Z,86.63
2018-06-25T05:03:22.427Z,86.43
2018-06-25T05:04:22.431Z,87.14
2018-06-25T05:05:22.402Z,86.53
2018-06-25T05:06:22.390Z,86.53
2018-06-25T05:07:22.381Z,86.94
2018-06-25T05:08:22.369Z,86.33
2018-06-25T05:09:22.368Z,86.43
2018-06-25T05:10:22.346Z,86.19
2018-06-25T05:11:22.338Z,86.53
2018-06-25T05:12:22.327Z,86.80
2018-06-25T05:13:22.315Z,87.30
2018-06-25T05:14:22.315Z,86.80
2018-06-25T05:15:22.321Z,87.00
2018-06-25T05:16:22.304Z,86.43
2018-06-25T05:17:22.270Z,85.98
2018-06-25T05:18:22.255Z,86.63
2018-06-25T05:19:22.261Z,86.13
2018-06-25T05:20:22.238Z,86.33
2018-06-25T05:21:22.224Z,86.19
2018-06-25T05:22:22.211Z,86.80
2018-06-25T05:23:22.204Z,86.80
2018-06-25T05:24:22.199Z,86.80
2018-06-25T05:25:22.179Z,86.90
2018-06-25T05:26:22.187Z,87.10
2018-06-25T05:27:22.159Z,87.10
2018-06-25T05:28:22.146Z,87.10
2018-06-25T05:29:22.147Z,86.80
2018-06-25T05:30:22.126Z,86.90
2018-06-25T05:31:22.113Z,87.10
2018-06-25T05:32:22.103Z,86.90
2018-06-25T05:33:22.091Z,86.80
2018-06-25T05:34:22.131Z,86.19
2018-06-25T05:35:22.069Z,86.08
2018-06-25T05:36:22.059Z,85.78
2018-06-25T05:37:22.046Z,85.17
2018-06-25T05:38:22.041Z,84.97
2018-06-25T05:39:22.025Z,84.15
2018-06-25T05:40:22.023Z,84.56
2018-06-25T05:41:22.004Z,84.52
2018-06-25T05:42:21.991Z,84.72
2018-06-25T05:43:21.979Z,85.23
2018-06-25T05:44:21.973Z,85.64
2018-06-25T05:45:21.971Z,85.03
2018-06-25T05:46:21.947Z,84.82
2018-06-25T05:47:21.956Z,85.74
2018-06-25T05:48:21.925Z,85.70
2018-06-25T05:49:21.913Z,84.99
2018-06-25T05:50:21.916Z,84.07
2018-06-25T05:51:21.892Z,84.48
2018-06-25T05:52:21.880Z,84.58
2018-06-25T05:53:21.870Z,84.74
2018-06-25T05:54:21.857Z,84.34
2018-06-25T05:55:21.868Z,83.46
2018-06-25T05:56:21.847Z,84.48
2018-06-25T05:57:21.826Z,83.87
2018-06-25T05:58:21.817Z,83.87
2018-06-25T05:59:21.807Z,83.76
2018-06-25T06:00:21.802Z,83.87
2018-06-25T06:01:21.782Z,83.97
2018-06-25T06:02:21.771Z,83.87
2018-06-25T06:03:21.762Z,84.68
2018-06-25T06:04:21.750Z,83.97
2018-06-25T06:05:21.747Z,82.75
2018-06-25T06:06:21.726Z,83.36
2018-06-25T06:07:21.713Z,84.28
2018-06-25T06:08:21.703Z,83.87
2018-06-25T06:09:21.692Z,83.97
2018-06-25T06:10:21.691Z,84.52
2018-06-25T06:11:21.679Z,84.48
2018-06-25T06:12:21.660Z,84.17
2018-06-25T06:13:21.647Z,84.92
2018-06-25T06:14:21.643Z,84.38
2018-06-25T06:15:21.636Z,84.38
2018-06-25T06:16:21.614Z,83.87
2018-06-25T06:17:21.621Z,84.48
2018-06-25T06:18:21.593Z,84.17
2018-06-25T06:19:21.583Z,84.28
2018-06-25T06:20:21.582Z,84.58
2018-06-25T06:21:21.570Z,85.19
2018-06-25T06:22:21.549Z,85.90
2018-06-25T06:23:21.539Z,84.48
2018-06-25T06:24:21.536Z,85.29
2018-06-25T06:25:21.528Z,84.52
2018-06-25T06:26:21.519Z,86.21
2018-06-25T06:27:21.493Z,84.92
2018-06-25T06:28:21.546Z,84.62
2018-06-25T06:29:21.475Z,84.31
2018-06-25T06:30:21.474Z,84.88
2018-06-25T06:31:21.451Z,85.39
2018-06-25T06:32:21.453Z,83.26
2018-06-25T06:33:21.426Z,84.48
2018-06-25T06:34:21.415Z,83.32
2018-06-25T06:35:21.438Z,84.13
2018-06-25T06:36:21.393Z,81.79
2018-06-25T06:37:21.383Z,82.92
2018-06-25T06:38:21.374Z,82.71
2018-06-25T06:39:21.363Z,84.23
2018-06-25T06:40:21.365Z,83.89
2018-06-25T06:41:21.337Z,81.35
2018-06-25T06:42:21.329Z,81.19
2018-06-25T06:43:21.317Z,80.17
2018-06-25T06:44:21.308Z,81.25
2018-06-25T06:45:21.306Z,79.83
2018-06-25T06:46:21.294Z,79.83
2018-06-25T06:47:21.281Z,79.93
2018-06-25T06:48:21.260Z,80.13
2018-06-25T06:49:21.251Z,78.81
2018-06-25T06:50:21.251Z,79.56
2018-06-25T06:51:21.229Z,79.32
2018-06-25T06:52:21.245Z,80.68
2018-06-25T06:53:21.206Z,82.61
2018-06-25T06:54:21.195Z,82.10
2018-06-25T06:55:21.194Z,79.83
2018-06-25T06:56:21.174Z,77.73
2018-06-25T06:57:21.161Z,78.75
2018-06-25T06:58:21.156Z,78.55
2018-06-25T06:59:21.139Z,77.83
2018-06-25T07:00:21.138Z,77.80
2018-06-25T07:01:21.117Z,76.98
2018-06-25T07:02:21.106Z,77.80
2018-06-25T07:03:21.095Z,78.41
2018-06-25T07:04:21.116Z,77.05
2018-06-25T07:05:21.092Z,76.68
2018-06-25T07:06:21.070Z,76.44
2018-06-25T07:07:21.056Z,75.52
2018-06-25T07:08:21.044Z,75.63
2018-06-25T07:09:21.035Z,75.90
2018-06-25T07:10:21.106Z,77.08
2018-06-25T07:11:21.017Z,75.56
2018-06-25T07:12:21.000Z,77.08
2018-06-25T07:13:21.002Z,76.64
2018-06-25T07:14:20.986Z,75.82
2018-06-25T07:15:20.989Z,74.48
2018-06-25T07:16:20.957Z,73.25
2018-06-25T07:17:20.945Z,73.32
2018-06-25T07:18:20.938Z,72.11
2018-06-25T07:19:20.928Z,70.96
2018-06-25T07:20:20.934Z,71.06
2018-06-25T07:21:20.904Z,71.16
2018-06-25T07:22:20.893Z,69.21
2018-06-25T07:23:20.881Z,66.17
2018-06-25T07:24:20.870Z,66.75
2018-06-25T07:25:20.870Z,63.42
2018-06-25T07:26:20.852Z,61.23
2018-06-25T07:27:20.837Z,56.92
2018-06-25T07:28:20.842Z,55.18
2018-06-25T07:29:20.815Z,55.21
2018-06-25T07:30:20.815Z,57.83
2018-06-25T07:31:20.794Z,58.36
2018-06-25T07:32:20.782Z,61.65
2018-06-25T07:33:20.771Z,59.66
2018-06-25T07:34:20.764Z,58.92
2018-06-25T07:35:20.766Z,59.33
2018-06-25T07:36:20.739Z,60.81
2018-06-25T07:37:20.726Z,62.12
2018-06-25T07:38:20.718Z,60.46
2018-06-25T07:39:20.706Z,61.27
2018-06-25T07:40:20.732Z,59.56
2018-06-25T07:41:20.677Z,60.80
2018-06-25T07:42:20.687Z,60.12
2018-06-25T07:43:20.658Z,62.30
2018-06-25T07:44:20.651Z,61.21
2018-06-25T07:45:20.640Z,64.55
2018-06-25T07:46:20.650Z,63.67
2018-06-25T07:47:20.755Z,64.58
2018-06-25T07:48:20.607Z,63.17
2018-06-25T07:49:20.592Z,64.89
2018-06-25T07:50:20.585Z,65.97
2018-06-25T07:51:20.625Z,63.34
2018-06-25T07:52:20.569Z,64.76
2018-06-25T07:53:20.582Z,63.44
2018-06-25T07:54:20.542Z,63.81
2018-06-25T07:55:20.529Z,63.51
2018-06-25T07:56:20.527Z,63.01
2018-06-25T07:57:20.510Z,63.71
2018-06-25T07:58:20.500Z,62.37
2018-06-25T07:59:20.566Z,62.98
2018-06-25T08:00:20.471Z,63.01
2018-06-25T08:01:20.475Z,63.61
2018-06-25T08:02:20.454Z,63.51
2018-06-25T08:03:20.437Z,64.52
2018-06-25T08:04:20.446Z,64.73
2018-06-25T08:05:20.419Z,66.04
2018-06-25T08:06:20.430Z,65.00
2018-06-25T08:07:20.398Z,63.28
2018-06-25T08:08:20.385Z,64.79
2018-06-25T08:09:20.375Z,63.61
2018-06-25T08:10:20.383Z,64.62
2018-06-25T08:11:20.368Z,63.58
2018-06-25T08:12:20.343Z,63.99
2018-06-25T08:13:20.330Z,63.41
2018-06-25T08:14:20.320Z,63.89
2018-06-25T08:15:20.308Z,63.28
2018-06-25T08:16:20.386Z,62.57
2018-06-25T08:17:20.284Z,63.08
2018-06-25T08:18:20.279Z,62.47
2018-06-25T08:19:20.264Z,63.28
2018-06-25T08:20:20.326Z,60.88
2018-06-25T08:21:20.261Z,62.50
2018-06-25T08:22:20.249Z,62.70
2018-06-25T08:23:20.279Z,63.61
2018-06-25T08:24:20.207Z,61.79
2018-06-25T08:25:20.195Z,63.95
2018-06-25T08:26:20.210Z,62.73
2018-06-25T08:27:20.178Z,61.35
2018-06-25T08:28:20.167Z,63.47
2018-06-25T08:29:20.152Z,64.18
2018-06-25T08:30:20.142Z,64.89
2018-06-25T08:31:20.150Z,62.35
2018-06-25T08:32:20.126Z,62.33
2018-06-25T08:33:20.110Z,61.01
2018-06-25T08:34:20.313Z,60.81
2018-06-25T08:35:20.089Z,59.09
2018-06-25T08:36:20.159Z,60.61
2018-06-25T08:37:20.066Z,58.15
2018-06-25T08:38:20.115Z,55.98
2018-06-25T08:39:20.044Z,55.11
2018-06-25T08:40:20.173Z,52.49
2018-06-25T08:41:20.100Z,50.59
2018-06-25T08:42:20.012Z,44.47
2018-06-25T08:43:20.054Z,42.85
2018-06-25T08:44:19.986Z,43.18
2018-06-25T08:45:19.979Z,45.26
2018-06-25T08:46:19.991Z,46.93
2018-06-25T08:47:19.960Z,49.40
2018-06-25T08:48:19.986Z,50.13
2018-06-25T08:49:19.931Z,52.44
2018-06-25T08:50:19.924Z,51.69
2018-06-25T08:51:19.925Z,51.79
2018-06-25T08:52:19.903Z,49.01
2018-06-25T08:53:19.890Z,47.09
2018-06-25T08:54:19.882Z,47.19
2018-06-25T08:55:19.870Z,46.46
2018-06-25T08:56:19.872Z,42.59
2018-06-25T08:57:19.847Z,41.60
2018-06-25T08:58:19.835Z,42.27
2018-06-25T08:59:19.826Z,41.89
2018-06-25T09:00:19.816Z,38.26
2018-06-25T09:01:19.816Z,40.80
2018-06-25T09:02:19.791Z,40.54
2018-06-25T09:03:19.903Z,38.09
2018-06-25T09:04:19.837Z,37.70
2018-06-25T09:05:19.872Z,38.20
2018-06-25T09:06:19.770Z,40.12
2018-06-25T09:07:19.746Z,40.64
2018-06-25T09:08:19.726Z,43.29
2018-06-25T09:09:19.718Z,41.80
2018-06-25T09:10:19.710Z,43.15
2018-06-25T09:11:19.703Z,45.39
2018-06-25T09:12:19.684Z,46.24
2018-06-25T09:13:19.670Z,45.02
2018-06-25T09:14:19.662Z,48.16
2018-06-25T09:15:19.807Z,48.63
2018-06-25T09:16:19.657Z,49.65
2018-06-25T09:17:19.626Z,51.41
2018-06-25T09:18:19.620Z,50.73
2018-06-25T09:19:19.603Z,51.36
2018-06-25T09:20:19.596Z,50.45
2018-06-25T09:21:19.648Z,51.84
2018-06-25T09:22:19.575Z,51.43
2018-06-25T09:23:19.564Z,50.48
2018-06-25T09:24:19.553Z,50.11
2018-06-25T09:25:19.542Z,45.70
2018-06-25T09:26:19.545Z,46.00
2018-06-25T09:27:19.517Z,47.45
2018-06-25T09:28:22.233Z,48.10
2018-06-25T09:29:20.144Z,51.06
2018-06-25T09:30:19.479Z,52.82
2018-06-25T09:31:19.479Z,51.34
2018-06-25T09:32:19.457Z,52.77
2018-06-25T09:33:19.447Z,51.28
2018-06-25T09:34:19.440Z,52.14
2018-06-25T09:35:19.501Z,52.92
2018-06-25T09:36:19.450Z,54.13
2018-06-25T09:37:19.411Z,54.43
2018-06-25T09:38:19.396Z,53.72
2018-06-25T09:39:19.383Z,53.55
2018-06-25T09:40:19.373Z,53.07
2018-06-25T09:41:19.817Z,54.08
2018-06-25T09:42:19.348Z,54.18
2018-06-25T09:43:19.343Z,55.46
2018-06-25T09:44:19.326Z,53.75
2018-06-25T09:45:19.315Z,55.14
2018-06-25T09:46:19.340Z,52.69
2018-06-25T09:47:19.296Z,52.49
2018-06-25T09:48:19.286Z,53.00
2018-06-25T09:49:19.273Z,51.79
2018-06-25T09:50:19.263Z,50.98
2018-06-25T09:51:19.250Z,50.05
2018-06-25T09:52:19.250Z,48.74
2018-06-25T09:53:19.227Z,51.06
2018-06-25T09:54:19.224Z,49.85
2018-06-25T09:55:19.206Z,51.89
2018-06-25T09:56:19.195Z,49.55
2018-06-25T09:57:19.195Z,48.34
2018-06-25T09:58:19.173Z,51.18
2018-06-25T09:59:19.163Z,50.05
2018-06-25T10:00:19.154Z,51.93
2018-06-25T10:01:19.141Z,52.64
2018-06-25T10:02:19.144Z,49.32
2018-06-25T10:03:19.118Z,48.79
2018-06-25T10:04:19.107Z,48.69
2018-06-25T10:05:19.121Z,48.90
2018-06-25T10:06:21.730Z,50.98
2018-06-25T10:07:19.202Z,50.89
2018-06-25T10:08:19.066Z,52.59
2018-06-25T10:09:19.055Z,49.77
2018-06-25T10:10:19.042Z,51.18
2018-06-25T10:11:19.030Z,49.88
2018-06-25T10:12:19.031Z,50.89
2018-06-25T10:13:19.016Z,50.89
2018-06-25T10:14:18.998Z,48.47
2018-06-25T10:15:18.988Z,48.97
2018-06-25T10:16:18.978Z,51.68
2018-06-25T10:17:18.980Z,48.44
2018-06-25T10:18:18.956Z,50.76
2018-06-25T10:19:18.960Z,51.26
2018-06-25T10:20:18.939Z,51.66
2018-06-25T10:21:18.932Z,52.87
2018-06-25T10:22:18.931Z,51.44
2018-06-25T10:23:18.902Z,51.74
2018-06-25T10:24:19.677Z,50.26
2018-06-25T10:25:19.680Z,51.39
2018-06-25T10:26:18.867Z,51.31
2018-06-25T10:27:18.881Z,51.51
2018-06-25T10:28:18.859Z,51.11
2018-06-25T10:29:18.835Z,49.18
2018-06-25T10:30:18.831Z,51.31
2018-06-25T10:31:18.821Z,51.39
2018-06-25T10:32:18.818Z,51.09
2018-06-25T10:33:18.794Z,49.35
2018-06-25T10:34:18.785Z,48.47
2018-06-25T10:35:18.770Z,49.68
2018-06-25T10:36:18.759Z,49.68
2018-06-25T10:37:18.768Z,48.69
2018-06-25T10:38:18.736Z,47.86
2018-06-25T10:39:18.728Z,48.67
2018-06-25T10:40:18.714Z,48.77
2018-06-25T10:41:18.702Z,48.97
2018-06-25T10:42:18.803Z,51.99
2018-06-25T10:43:18.686Z,52.69
2018-06-25T10:44:18.670Z,50.20
2018-06-25T10:45:18.660Z,51.61
2018-06-25T10:46:18.659Z,49.30
2018-06-25T10:47:18.648Z,48.61
2018-06-25T10:48:18.629Z,49.44
2018-06-25T10:49:18.622Z,51.97
2018-06-25T10:50:18.604Z,51.86
2018-06-25T10:51:18.595Z,53.58
2018-06-25T10:52:18.594Z,53.00
2018-06-25T10:53:18.572Z,53.70
2018-06-25T10:54:18.561Z,51.38
2018-06-25T10:55:18.558Z,50.37
2018-06-25T10:56:18.539Z,50.48
2018-06-25T10:57:18.539Z,49.59
2018-06-25T10:58:18.519Z,51.71
2018-06-25T10:59:18.512Z,50.80
2018-06-25T11:00:18.600Z,52.09
2018-06-25T11:01:18.486Z,51.66
2018-06-25T11:02:18.486Z,51.06
2018-06-25T11:03:18.462Z,51.03
2018-06-25T11:04:18.452Z,51.03
2018-06-25T11:05:18.443Z,50.40
2018-06-25T11:06:18.432Z,50.51
2018-06-25T11:07:18.608Z,50.20
2018-06-25T11:08:18.408Z,52.82
2018-06-25T11:09:18.397Z,48.49
2018-06-25T11:10:18.387Z,48.59
2018-06-25T11:11:18.376Z,48.21
2018-06-25T11:12:18.401Z,48.52
2018-06-25T11:13:18.407Z,49.04
2018-06-25T11:14:18.343Z,50.35
2018-06-25T11:15:18.355Z,48.56
2018-06-25T11:16:18.322Z,50.35
2018-06-25T11:17:18.326Z,49.75
2018-06-25T11:18:18.299Z,50.85
2018-06-25T11:19:18.295Z,48.72
2018-06-25T11:20:18.281Z,48.52
2018-06-25T11:21:18.279Z,48.94
2018-06-25T11:22:18.265Z,49.42
2018-06-25T11:23:18.244Z,49.24
2018-06-25T11:24:18.234Z,51.36
2018-06-25T11:25:18.226Z,52.97
2018-06-25T11:26:18.211Z,51.84
2018-06-25T11:27:18.332Z,52.54
2018-06-25T11:28:18.190Z,51.34
2018-06-25T11:29:18.179Z,50.56
2018-06-25T11:30:18.169Z,51.56
2018-06-25T11:31:18.157Z,52.67
2018-06-25T11:32:18.158Z,53.67
2018-06-25T11:33:18.135Z,53.38
2018-06-25T11:34:18.124Z,50.63
2018-06-25T11:35:18.120Z,51.73
2018-06-25T11:36:18.102Z,51.43
2018-06-25T11:37:18.103Z,51.16
2018-06-25T11:38:18.112Z,53.27
2018-06-25T11:39:18.070Z,52.77
2018-06-25T11:40:18.059Z,52.26
2018-06-25T11:41:18.048Z,50.37
2018-06-25T11:42:18.047Z,50.07
2018-06-25T11:43:18.026Z,51.18
2018-06-25T11:44:18.019Z,51.38
2018-06-25T11:45:18.008Z,52.29
2018-06-25T11:46:17.995Z,52.72
2018-06-25T11:47:17.995Z,52.82
2018-06-25T11:48:17.976Z,53.63
2018-06-25T11:49:17.961Z,54.30
2018-06-25T11:50:17.953Z,53.60
2018-06-25T11:51:17.950Z,52.69
2018-06-25T11:52:17.933Z,51.28
2018-06-25T11:53:18.710Z,51.06
2018-06-25T11:54:17.912Z,51.46
2018-06-25T11:55:17.896Z,48.54
2018-06-25T11:56:17.883Z,50.65
2018-06-25T11:57:17.882Z,51.16
2018-06-25T11:58:17.874Z,51.66
2018-06-25T11:59:17.852Z,48.14
2018-06-25T12:00:17.863Z,50.45
2018-06-25T12:01:17.836Z,49.12
2018-06-25T12:02:17.819Z,49.52
2018-06-25T12:03:18.051Z,49.02
2018-06-25T12:04:17.822Z,48.29
2018-06-25T12:05:17.817Z,49.02
2018-06-25T12:06:17.776Z,48.92
2018-06-25T12:07:17.764Z,49.22
2018-06-25T12:08:17.762Z,51.01
2018-06-25T12:09:17.741Z,51.71
2018-06-25T12:10:17.737Z,49.27
2018-06-25T12:11:17.720Z,50.28
2018-06-25T12:12:17.745Z,52.37
2018-06-25T12:13:17.711Z,50.66
2018-06-25T12:14:17.687Z,50.15
2018-06-25T12:15:17.685Z,52.67
2018-06-25T12:16:18.240Z,52.84
2018-06-25T12:17:17.654Z,48.02
2018-06-25T12:18:17.655Z,47.22
2018-06-25T12:19:17.645Z,48.02
2018-06-25T12:20:17.625Z,45.51
2018-06-25T12:21:17.611Z,47.22
2018-06-25T12:22:17.603Z,46.34
2018-06-25T12:23:17.608Z,46.54
2018-06-25T12:24:17.579Z,49.15
2018-06-25T12:25:17.566Z,46.54
2018-06-25T12:26:17.560Z,46.86
2018-06-25T12:27:17.544Z,48.35
2018-06-25T12:28:17.547Z,48.14
2018-06-25T12:29:17.522Z,47.24
2018-06-25T12:30:17.514Z,49.22
2018-06-25T12:31:17.506Z,50.23
2018-06-25T12:32:17.492Z,51.04
2018-06-25T12:33:17.492Z,49.40
2018-06-25T12:34:17.471Z,51.49
2018-06-25T12:35:17.457Z,48.66
2018-06-25T12:36:17.447Z,48.25
2018-06-25T12:37:17.439Z,49.36
2018-06-25T12:38:17.438Z,46.35
2018-06-25T12:39:17.420Z,45.72
2018-06-25T12:40:17.403Z,46.33
2018-06-25T12:41:17.398Z,46.83
2018-06-25T12:42:17.386Z,46.73
2018-06-25T12:43:17.386Z,45.10
2018-06-25T12:44:17.359Z,44.32
2018-06-25T12:45:17.354Z,43.94
2018-06-25T12:46:17.344Z,48.75
2018-06-25T12:47:17.328Z,49.76
2018-06-25T12:48:17.350Z,51.24
2018-06-25T12:49:17.312Z,48.33
2018-06-25T12:50:17.295Z,47.35
2018-06-25T12:51:17.286Z,45.75
2018-06-25T12:52:17.278Z,47.27